Time;durP1;ratioP1;P1;durP2;ratioP2;P2;SDS_P1;SDS_P2;PMS_P1;PMS_P2;Temp;Humidity;BMP_temperature;BMP_pressure;BME280_temperature;BME280_humidity;BME280_pressure;Samples;Min_cycle;Max_cycle;Signal;HPM_P1;HPM_P2
2022/01/17 00:01:48;;;;;;;357.95;45.85;;;5.80;99.90;;;;;;4951606;29;20079;-68
2022/01/17 00:04:14;;;;;;;192.30;39.80;;;5.80;99.90;;;;;;4949384;28;20063;-68
2022/01/17 00:06:41;;;;;;;226.70;41.35;;;5.80;99.90;;;;;;4949794;29;20020;-68
2022/01/17 00:09:07;;;;;;;205.50;41.45;;;5.80;99.90;;;;;;4949384;28;20618;-68
2022/01/17 00:11:35;;;;;;;232.20;46.42;;;5.80;99.90;;;;;;4948987;28;20027;-68
2022/01/17 00:14:01;;;;;;;175.40;43.58;;;5.80;99.90;;;;;;4952199;29;20028;-68
2022/01/17 00:16:39;;;;;;;182.80;42.45;;;5.80;99.90;;;;;;4948554;28;20035;-68
2022/01/17 00:19:34;;;;;;;262.67;45.13;;;5.80;99.90;;;;;;4948306;28;20039;-68
2022/01/17 00:21:53;;;;;;;205.13;43.63;;;5.80;99.90;;;;;;4948205;29;20066;-68
2022/01/17 00:24:21;;;;;;;167.20;41.28;;;5.80;99.90;;;;;;4949147;28;20090;-68
2022/01/17 00:26:47;;;;;;;168.18;42.65;;;5.70;99.90;;;;;;4945903;28;20502;-68
2022/01/17 00:29:13;;;;;;;194.80;46.03;;;5.70;99.90;;;;;;4954491;28;20039;-68
2022/01/17 00:31:39;;;;;;;133.52;41.47;;;5.70;99.90;;;;;;4954938;29;20148;-68
2022/01/17 00:34:05;;;;;;;122.43;40.30;;;5.60;99.90;;;;;;4951979;29;20500;-69
2022/01/17 00:36:30;;;;;;;125.68;41.70;;;5.60;99.90;;;;;;4953102;29;20027;-68
2022/01/17 00:38:56;;;;;;;115.97;43.58;;;5.60;99.90;;;;;;4951481;29;20019;-68
2022/01/17 00:41:22;;;;;;;168.18;44.17;;;5.60;99.90;;;;;;4952254;28;20067;-68
2022/01/17 00:43:48;;;;;;;119.80;41.53;;;5.60;99.90;;;;;;4955337;29;20047;-68
2022/01/17 00:46:14;;;;;;;123.03;46.63;;;5.60;99.90;;;;;;4951153;28;20050;-68
2022/01/17 00:48:39;;;;;;;143.40;47.17;;;5.70;99.90;;;;;;4950980;28;20024;-68
2022/01/17 00:51:05;;;;;;;91.15;42.30;;;5.70;99.90;;;;;;4953372;28;20035;-68
2022/01/17 00:53:31;;;;;;;89.22;41.92;;;5.70;99.90;;;;;;4951976;28;20103;-69
2022/01/17 00:55:56;;;;;;;106.80;43.80;;;5.70;99.90;;;;;;4950718;29;20483;-68
2022/01/17 00:58:22;;;;;;;87.53;41.80;;;5.80;99.90;;;;;;4950681;29;20509;-68
2022/01/17 01:00:48;;;;;;;89.80;40.45;;;5.80;99.90;;;;;;4950860;29;20034;-67
2022/01/17 01:03:14;;;;;;;110.70;43.03;;;5.80;99.90;;;;;;4952997;28;20057;-68
2022/01/17 01:05:40;;;;;;;117.20;44.97;;;5.80;99.90;;;;;;4950623;29;20033;-68
2022/01/17 01:08:06;;;;;;;140.85;46.72;;;5.80;99.90;;;;;;4954290;28;20028;-68
2022/01/17 01:10:32;;;;;;;102.40;47.13;;;5.80;99.90;;;;;;4952084;28;20070;-68
2022/01/17 01:12:58;;;;;;;127.22;47.17;;;5.80;99.90;;;;;;4950922;29;20105;-68
2022/01/17 01:18:30;;;;;;;199.93;50.38;;;5.90;99.90;;;;;;4952120;28;20166;-68
2022/01/17 01:28:50;;;;;;;253.60;57.03;;;6.00;99.90;;;;;;4952674;29;20082;-68
2022/01/17 01:31:22;;;;;;;213.50;55.60;;;6.00;99.90;;;;;;4951858;28;20059;-69
2022/01/17 01:33:53;;;;;;;233.02;56.08;;;6.00;99.90;;;;;;4950442;28;20020;-68
2022/01/17 01:36:27;;;;;;;249.90;58.22;;;6.00;99.90;;;;;;4949921;28;20031;-68
2022/01/17 01:38:53;;;;;;;279.80;55.10;;;6.00;99.90;;;;;;4950541;28;20036;-68
2022/01/17 01:41:20;;;;;;;256.50;54.00;;;6.00;99.90;;;;;;4952400;28;20031;-69
2022/01/17 01:43:46;;;;;;;472.08;62.25;;;6.00;99.90;;;;;;4952123;28;20498;-68
2022/01/17 01:46:17;;;;;;;219.80;54.47;;;6.00;99.90;;;;;;4949806;28;20384;-68
2022/01/17 01:48:43;;;;;;;170.93;52.80;;;6.00;99.90;;;;;;4951213;28;20046;-68
2022/01/17 01:51:09;;;;;;;372.45;60.97;;;6.00;99.90;;;;;;4951263;28;20041;-68
2022/01/17 01:53:36;;;;;;;185.40;55.40;;;6.00;99.90;;;;;;4935266;29;20019;-68
2022/01/17 01:56:02;;;;;;;154.75;52.08;;;6.00;99.90;;;;;;4947637;29;20069;-68
2022/01/17 01:58:28;;;;;;;275.33;60.58;;;6.10;99.90;;;;;;4949425;29;20074;-68
2022/01/17 02:00:55;;;;;;;155.38;52.38;;;6.10;99.90;;;;;;4948852;29;20027;-68
2022/01/17 02:03:22;;;;;;;145.55;53.15;;;6.10;99.90;;;;;;4949712;28;20043;-68
2022/01/17 02:05:47;;;;;;;161.93;52.92;;;6.10;99.90;;;;;;4950005;28;20023;-68
2022/01/17 02:08:14;;;;;;;345.52;62.38;;;6.10;99.90;;;;;;4952602;28;20023;-68
2022/01/17 02:10:41;;;;;;;318.92;64.07;;;6.10;99.90;;;;;;4952529;29;20075;-68
2022/01/17 02:13:07;;;;;;;376.60;67.28;;;6.10;99.90;;;;;;4950077;29;20059;-68
2022/01/17 02:15:32;;;;;;;192.85;58.13;;;6.20;99.90;;;;;;4949212;28;20054;-68
2022/01/17 02:17:58;;;;;;;238.32;58.00;;;6.20;99.90;;;;;;4950487;28;20455;-68
2022/01/17 02:20:40;;;;;;;323.65;64.88;;;6.20;99.90;;;;;;4950954;28;20035;-68
2022/01/17 02:23:07;;;;;;;172.40;55.58;;;6.20;99.90;;;;;;4949856;29;20047;-68
2022/01/17 02:25:33;;;;;;;198.95;60.20;;;6.20;99.90;;;;;;4946794;29;20529;-68
2022/01/17 02:27:59;;;;;;;160.07;54.42;;;6.30;99.90;;;;;;4946910;29;20028;-68
2022/01/17 02:30:26;;;;;;;141.13;51.55;;;6.30;99.90;;;;;;4948554;28;20129;-68
2022/01/17 02:32:53;;;;;;;208.80;53.65;;;6.30;99.90;;;;;;4949610;29;20074;-68
2022/01/17 02:35:21;;;;;;;198.32;50.17;;;6.30;99.90;;;;;;4949404;29;20039;-67
2022/01/17 02:37:47;;;;;;;155.45;45.03;;;6.30;99.90;;;;;;4950466;28;20019;-68
2022/01/17 02:40:15;;;;;;;386.23;56.78;;;6.30;99.90;;;;;;4948408;29;20109;-69
2022/01/17 02:42:41;;;;;;;186.15;46.95;;;6.30;99.90;;;;;;4949605;28;20091;-68
2022/01/17 02:48:04;;;;;;;152.18;45.88;;;6.40;99.90;;;;;;4889650;29;20136;-68
2022/01/17 02:50:30;;;;;;;130.82;44.85;;;6.40;99.90;;;;;;4890982;29;20103;-68
2022/01/17 02:53:02;;;;;;;132.50;45.78;;;6.50;99.90;;;;;;4893569;29;20072;-68
2022/01/17 02:55:28;;;;;;;285.50;52.80;;;6.40;99.90;;;;;;4890832;29;20040;-68
2022/01/17 02:57:54;;;;;;;242.88;48.60;;;6.50;99.90;;;;;;4890061;29;20510;-68
2022/01/17 03:00:20;;;;;;;288.95;52.45;;;6.50;99.90;;;;;;4890686;29;20096;-68
2022/01/17 03:02:48;;;;;;;174.55;46.40;;;6.50;99.90;;;;;;4889390;29;20029;-68
2022/01/17 03:05:15;;;;;;;364.42;58.10;;;6.50;99.90;;;;;;4892265;29;20056;-68
2022/01/17 03:07:41;;;;;;;293.40;51.58;;;6.50;99.90;;;;;;4891267;29;20036;-68
2022/01/17 03:10:14;;;;;;;369.70;55.70;;;6.50;99.90;;;;;;4889493;29;20054;-68
2022/01/17 03:12:40;;;;;;;334.50;53.83;;;6.50;99.90;;;;;;4890127;29;20799;-68
2022/01/17 03:15:06;;;;;;;354.17;56.67;;;6.60;99.90;;;;;;4890566;29;20048;-68
2022/01/17 03:17:32;;;;;;;127.40;46.47;;;6.60;99.90;;;;;;4891389;29;20052;-68
2022/01/17 03:19:58;;;;;;;201.60;47.88;;;6.60;99.90;;;;;;4892766;29;20071;-68
2022/01/17 03:22:24;;;;;;;244.75;48.70;;;6.60;99.90;;;;;;4889839;29;20040;-68
2022/01/17 03:24:49;;;;;;;216.45;53.40;;;6.60;99.90;;;;;;4911161;29;20046;-68
2022/01/17 03:27:15;;;;;;;241.27;50.85;;;6.60;99.90;;;;;;4939338;29;20023;-68
2022/01/17 03:29:41;;;;;;;332.77;54.63;;;6.60;99.90;;;;;;4949780;29;20110;-68
2022/01/17 03:32:07;;;;;;;124.60;45.80;;;6.70;99.90;;;;;;4953088;28;20024;-68
2022/01/17 03:34:32;;;;;;;185.77;47.22;;;6.70;99.90;;;;;;4948727;28;20085;-69
2022/01/17 03:36:58;;;;;;;383.58;57.33;;;6.70;99.90;;;;;;4948685;29;20501;-68
2022/01/17 03:39:24;;;;;;;230.30;49.22;;;6.70;99.90;;;;;;4950273;28;20062;-68
2022/01/17 03:41:50;;;;;;;151.52;45.80;;;6.70;99.90;;;;;;4951201;29;20027;-68
2022/01/17 03:44:15;;;;;;;157.90;46.05;;;6.70;99.90;;;;;;4950470;28;20067;-68
2022/01/17 03:46:41;;;;;;;232.70;49.63;;;6.70;99.90;;;;;;4949910;29;20387;-68
2022/01/17 03:49:07;;;;;;;165.73;44.42;;;6.70;99.90;;;;;;4947715;28;20031;-68
2022/01/17 03:51:33;;;;;;;180.63;47.55;;;6.70;99.90;;;;;;4948466;29;20030;-68
2022/01/17 03:53:58;;;;;;;145.82;43.40;;;6.70;99.90;;;;;;4948224;29;20035;-68
2022/01/17 03:56:24;;;;;;;219.45;48.20;;;6.80;99.90;;;;;;4938452;28;20032;-68
2022/01/17 03:58:50;;;;;;;138.80;44.58;;;6.80;99.90;;;;;;4951609;28;20507;-68
2022/01/17 04:01:16;;;;;;;294.35;51.22;;;6.80;99.90;;;;;;4954294;28;20038;-68
2022/01/17 04:03:41;;;;;;;227.95;49.10;;;6.80;99.90;;;;;;4951903;29;20058;-68
2022/01/17 04:06:07;;;;;;;252.68;49.05;;;6.80;99.90;;;;;;4949672;29;20111;-69
2022/01/17 04:08:34;;;;;;;263.17;49.25;;;6.80;99.90;;;;;;4953599;29;20114;-69
2022/01/17 04:11:00;;;;;;;219.32;48.78;;;6.80;99.90;;;;;;4955255;28;20046;-68
2022/01/17 04:13:26;;;;;;;229.52;50.85;;;6.80;99.90;;;;;;4951467;29;20034;-68
2022/01/17 04:15:52;;;;;;;174.68;49.72;;;6.80;99.90;;;;;;4953868;28;20027;-68
2022/01/17 04:18:23;;;;;;;293.13;50.55;;;6.80;99.90;;;;;;4952557;28;20090;-68
2022/01/17 04:20:49;;;;;;;252.80;51.63;;;6.80;99.90;;;;;;4954307;28;20538;-68
2022/01/17 04:23:15;;;;;;;287.20;53.25;;;6.80;99.90;;;;;;4954777;28;20110;-68
2022/01/17 04:25:43;;;;;;;143.77;45.42;;;6.80;99.90;;;;;;4953566;28;20026;-69
2022/01/17 04:28:10;;;;;;;260.00;52.00;;;6.80;99.90;;;;;;4953857;28;20031;-68
2022/01/17 04:30:37;;;;;;;161.05;49.28;;;6.80;99.90;;;;;;4952195;28;20034;-68
2022/01/17 04:33:03;;;;;;;218.25;52.47;;;6.80;99.90;;;;;;4953650;29;20029;-68
2022/01/17 04:35:30;;;;;;;161.65;48.30;;;6.90;99.90;;;;;;4953419;28;20059;-68
2022/01/17 04:38:03;;;;;;;232.57;50.40;;;6.90;99.90;;;;;;4954555;29;20431;-69
2022/01/17 04:40:35;;;;;;;305.40;54.60;;;6.90;99.90;;;;;;4953801;28;20115;-69
2022/01/17 04:43:04;;;;;;;189.95;49.33;;;6.90;99.90;;;;;;4953067;28;20027;-70
2022/01/17 04:45:30;;;;;;;156.88;48.08;;;6.80;99.90;;;;;;4947927;28;20520;-69
2022/01/17 04:47:55;;;;;;;130.40;46.00;;;6.90;99.90;;;;;;4952979;28;20058;-69
2022/01/17 04:50:24;;;;;;;113.90;42.63;;;6.90;99.90;;;;;;4953856;28;20533;-69
2022/01/17 04:52:53;;;;;;;113.18;41.92;;;6.90;99.90;;;;;;4949004;29;20016;-69
2022/01/17 04:55:20;;;;;;;119.10;43.30;;;6.90;99.90;;;;;;4945065;28;20047;-69
2022/01/17 04:57:47;;;;;;;154.75;45.28;;;6.80;99.90;;;;;;4949116;29;20094;-68
2022/01/17 05:00:15;;;;;;;124.68;43.40;;;6.80;99.90;;;;;;4950754;28;20573;-68
2022/01/17 05:02:43;;;;;;;188.45;46.47;;;6.80;99.90;;;;;;4951958;28;20031;-67
2022/01/17 05:05:10;;;;;;;343.55;50.28;;;6.80;99.90;;;;;;4954108;28;20094;-68
2022/01/17 05:07:36;;;;;;;252.15;49.67;;;6.80;99.90;;;;;;4952104;28;20360;-69
2022/01/17 05:10:05;;;;;;;169.95;47.08;;;6.80;99.90;;;;;;4951895;28;20569;-69
2022/01/17 05:12:31;;;;;;;318.73;51.90;;;6.80;99.90;;;;;;4952392;28;20031;-70
2022/01/17 05:14:58;;;;;;;151.75;46.88;;;6.80;99.90;;;;;;4952215;28;20031;-70
2022/01/17 05:19:52;;;;;;;114.55;42.05;;;6.80;99.90;;;;;;4953299;28;20035;-69
2022/01/17 05:22:22;;;;;;;138.25;43.92;;;6.80;99.90;;;;;;4953862;28;20027;-69
2022/01/17 05:24:48;;;;;;;193.43;46.07;;;6.80;99.90;;;;;;4947763;28;20046;-70
2022/01/17 05:27:14;;;;;;;288.75;48.72;;;6.80;99.90;;;;;;4943196;29;20035;-69
2022/01/17 05:29:40;;;;;;;236.25;48.45;;;6.80;99.90;;;;;;4952770;28;20035;-68
2022/01/17 05:32:06;;;;;;;197.68;45.75;;;6.80;99.90;;;;;;4953749;28;20035;-68
2022/01/17 05:34:40;;;;;;;251.45;48.25;;;6.80;99.90;;;;;;4950725;29;20031;-69
2022/01/17 05:37:10;;;;;;;139.90;42.95;;;6.80;99.90;;;;;;4950495;29;20111;-67
2022/01/17 05:39:36;;;;;;;114.50;44.13;;;6.90;99.90;;;;;;4950505;28;20031;-69
2022/01/17 05:42:03;;;;;;;190.02;47.65;;;6.90;99.90;;;;;;4951618;28;20035;-68
2022/01/17 05:44:29;;;;;;;293.08;50.33;;;6.90;99.90;;;;;;4951136;28;20147;-68
2022/01/17 05:46:55;;;;;;;122.22;42.45;;;6.90;99.90;;;;;;4954207;28;20102;-68
2022/01/17 05:49:20;;;;;;;178.02;45.72;;;6.90;99.90;;;;;;4949901;28;20040;-68
2022/01/17 05:51:46;;;;;;;155.75;45.28;;;6.90;99.90;;;;;;4949224;28;20030;-68
2022/01/17 05:54:12;;;;;;;230.93;47.90;;;6.90;99.90;;;;;;4951551;29;20416;-68
2022/01/17 05:56:38;;;;;;;194.23;45.55;;;6.90;99.90;;;;;;4938396;28;20023;-68
2022/01/17 05:59:03;;;;;;;103.43;40.95;;;6.90;99.90;;;;;;4953716;28;20498;-68
2022/01/17 06:01:29;;;;;;;186.23;46.53;;;6.90;99.90;;;;;;4949968;28;20023;-66
2022/01/17 06:03:55;;;;;;;303.70;49.40;;;6.90;99.90;;;;;;4950033;28;20054;-66
2022/01/17 06:06:20;;;;;;;159.63;43.50;;;6.90;99.90;;;;;;4949941;28;20031;-68
2022/01/17 06:08:46;;;;;;;252.82;47.53;;;6.90;99.90;;;;;;4949449;28;20111;-68
2022/01/17 06:11:12;;;;;;;117.60;40.15;;;6.90;99.90;;;;;;4952130;28;20035;-69
2022/01/17 06:13:38;;;;;;;118.97;40.00;;;6.90;99.90;;;;;;4950416;29;20126;-69
2022/01/17 06:16:04;;;;;;;204.95;46.25;;;6.90;99.90;;;;;;4949918;28;20110;-69
2022/01/17 06:18:31;;;;;;;116.55;41.17;;;7.00;99.90;;;;;;4947234;28;20050;-68
2022/01/17 06:20:57;;;;;;;121.88;41.83;;;6.90;99.90;;;;;;4948371;28;20031;-68
2022/01/17 06:23:25;;;;;;;141.18;43.80;;;7.00;99.90;;;;;;4949279;28;20402;-68
2022/01/17 06:25:51;;;;;;;131.05;41.58;;;7.00;99.90;;;;;;4951262;29;20027;-69
2022/01/17 06:28:16;;;;;;;272.63;46.60;;;7.00;99.90;;;;;;4949384;29;20034;-69
2022/01/17 06:30:42;;;;;;;146.23;42.45;;;7.00;99.90;;;;;;4951531;28;20046;-69
2022/01/17 06:33:08;;;;;;;222.80;45.28;;;7.00;99.90;;;;;;4949037;28;20159;-69
2022/01/17 06:35:34;;;;;;;177.68;42.92;;;7.00;99.90;;;;;;4948760;28;20514;-69
2022/01/17 06:38:00;;;;;;;136.07;42.80;;;7.00;99.90;;;;;;4951475;28;20402;-69
2022/01/17 06:40:25;;;;;;;119.78;42.00;;;7.00;99.90;;;;;;4950136;28;20035;-68
2022/01/17 06:42:51;;;;;;;144.73;44.03;;;7.00;99.90;;;;;;4951077;28;20460;-68
2022/01/17 06:45:18;;;;;;;129.63;43.30;;;7.00;99.90;;;;;;4950916;28;20557;-68
2022/01/17 06:47:44;;;;;;;164.25;43.70;;;7.00;99.90;;;;;;4950196;28;20668;-69
2022/01/17 06:50:11;;;;;;;225.65;47.28;;;7.00;99.90;;;;;;4950936;28;20046;-69
2022/01/17 06:52:39;;;;;;;182.43;44.28;;;7.10;99.90;;;;;;4950776;28;20134;-69
2022/01/17 06:55:07;;;;;;;193.82;44.88;;;7.00;99.90;;;;;;4956539;28;20034;-69
2022/01/17 06:57:32;;;;;;;235.70;45.63;;;7.10;99.90;;;;;;4946326;29;20023;-69
2022/01/17 06:59:58;;;;;;;373.55;50.08;;;7.10;99.90;;;;;;4948296;28;20027;-69
2022/01/17 07:02:24;;;;;;;202.60;45.30;;;7.10;99.90;;;;;;4937562;28;20039;-70
2022/01/17 07:04:50;;;;;;;145.20;43.47;;;7.10;99.90;;;;;;4948228;29;20110;-70
2022/01/17 07:07:17;;;;;;;293.35;54.92;;;7.10;99.90;;;;;;4946531;29;20027;-69
2022/01/17 07:09:43;;;;;;;226.55;48.40;;;7.20;99.90;;;;;;4946741;29;20126;-70
2022/01/17 07:12:09;;;;;;;371.75;48.47;;;7.10;99.90;;;;;;4938668;29;20106;-69
2022/01/17 07:14:41;;;;;;;198.18;44.65;;;7.10;99.90;;;;;;4949372;29;20107;-69
2022/01/17 07:17:11;;;;;;;270.85;46.72;;;7.20;99.90;;;;;;4940223;29;20066;-69
2022/01/17 07:19:38;;;;;;;268.92;44.00;;;7.20;99.90;;;;;;4943233;28;20127;-69
2022/01/17 07:22:07;;;;;;;249.75;45.67;;;7.20;99.90;;;;;;4948070;29;20042;-69
2022/01/17 07:24:34;;;;;;;279.80;45.42;;;7.20;99.90;;;;;;4947368;28;20522;-69
2022/01/17 07:27:00;;;;;;;383.33;50.42;;;7.20;99.90;;;;;;4950325;28;20031;-69
2022/01/17 07:29:26;;;;;;;504.73;55.33;;;7.20;99.90;;;;;;4950436;28;20066;-70
2022/01/17 07:31:55;;;;;;;417.60;50.28;;;7.20;99.90;;;;;;4952359;28;20049;-69
2022/01/17 07:34:21;;;;;;;148.77;43.15;;;7.20;99.90;;;;;;4951464;28;20035;-69
2022/01/17 07:36:48;;;;;;;452.85;59.72;;;7.20;99.90;;;;;;4949448;28;20155;-69
2022/01/17 07:39:14;;;;;;;256.55;49.20;;;7.20;99.90;;;;;;4954221;28;20031;-69
2022/01/17 07:41:39;;;;;;;326.27;53.58;;;7.20;99.90;;;;;;4952899;29;20023;-69
2022/01/17 07:44:07;;;;;;;238.77;51.97;;;7.20;99.90;;;;;;4955756;28;20118;-70
2022/01/17 07:46:47;;;;;;;216.85;46.22;;;7.20;99.90;;;;;;4946334;28;20024;-69
2022/01/17 07:49:19;;;;;;;153.18;41.30;;;7.30;99.90;;;;;;4945964;29;20035;-69
2022/01/17 07:51:47;;;;;;;183.60;44.95;;;7.30;99.90;;;;;;4949314;29;20586;-70
2022/01/17 07:54:15;;;;;;;194.55;43.78;;;7.30;99.90;;;;;;4949699;28;20027;-69
2022/01/17 07:56:42;;;;;;;179.75;41.80;;;7.30;99.90;;;;;;4953996;28;20036;-69
2022/01/17 07:59:10;;;;;;;157.77;41.35;;;7.30;99.90;;;;;;4953522;28;20118;-69
2022/01/17 08:01:37;;;;;;;255.15;44.55;;;7.30;99.90;;;;;;4954548;28;20035;-70
2022/01/17 08:04:04;;;;;;;154.95;41.00;;;7.30;99.90;;;;;;4950337;28;20047;-70
2022/01/17 08:06:30;;;;;;;158.50;39.95;;;7.30;99.90;;;;;;4942662;29;20092;-69
2022/01/17 08:08:58;;;;;;;235.23;43.42;;;7.40;99.90;;;;;;4951476;28;20123;-69
2022/01/17 08:11:23;;;;;;;176.77;39.80;;;7.40;99.90;;;;;;4952448;29;20034;-69
2022/01/17 08:13:49;;;;;;;176.32;41.65;;;7.40;99.90;;;;;;4951998;29;20031;-68
2022/01/17 08:16:15;;;;;;;180.27;40.40;;;7.50;99.90;;;;;;4951530;28;20074;-70
2022/01/17 08:18:42;;;;;;;189.48;39.90;;;7.60;99.90;;;;;;4949339;28;20116;-69
2022/01/17 08:21:08;;;;;;;241.18;41.75;;;7.60;99.90;;;;;;4943236;29;20110;-69
2022/01/17 08:23:36;;;;;;;407.25;43.85;;;7.60;99.90;;;;;;4953255;28;20027;-69
2022/01/17 08:26:02;;;;;;;192.77;40.63;;;7.60;99.90;;;;;;4952973;29;20046;-69
2022/01/17 08:28:28;;;;;;;281.38;43.28;;;7.70;99.90;;;;;;4950509;28;20039;-69
2022/01/17 08:30:54;;;;;;;319.75;44.45;;;7.70;99.90;;;;;;4947813;29;20089;-70
2022/01/17 08:33:19;;;;;;;333.67;45.28;;;7.70;99.90;;;;;;4951471;29;20506;-69
2022/01/17 08:35:45;;;;;;;282.88;43.53;;;7.70;99.90;;;;;;4951640;28;20480;-69
2022/01/17 08:38:11;;;;;;;192.70;42.10;;;7.70;99.90;;;;;;4954829;28;20026;-69
2022/01/17 08:40:37;;;;;;;221.48;46.47;;;7.80;99.90;;;;;;4952178;29;20039;-70
2022/01/17 08:43:02;;;;;;;221.40;44.72;;;7.80;99.90;;;;;;4951351;28;20031;-69
2022/01/17 08:45:29;;;;;;;223.18;43.70;;;7.80;99.90;;;;;;4946547;28;20518;-69
2022/01/17 08:47:55;;;;;;;162.95;36.42;;;7.80;99.90;;;;;;4953061;28;20016;-69
2022/01/17 08:50:22;;;;;;;176.18;39.17;;;7.90;99.90;;;;;;4957956;28;20111;-69
2022/01/17 08:52:48;;;;;;;143.52;34.40;;;7.90;99.90;;;;;;4953035;28;20130;-69
2022/01/17 08:55:15;;;;;;;186.50;35.67;;;7.90;99.90;;;;;;4945574;29;20066;-69
2022/01/17 08:57:42;;;;;;;168.48;33.88;;;8.00;99.90;;;;;;4951175;28;20023;-69
2022/01/17 09:00:14;;;;;;;163.95;37.70;;;8.00;99.90;;;;;;4952923;28;20091;-69
2022/01/17 09:02:39;;;;;;;447.15;67.95;;;8.00;99.90;;;;;;4935941;29;20033;-69
2022/01/17 09:05:06;;;;;;;190.25;38.45;;;8.00;99.90;;;;;;4955038;28;20133;-69
2022/01/17 09:07:31;;;;;;;144.40;35.22;;;8.10;99.90;;;;;;4952553;28;20035;-69
2022/01/17 09:09:57;;;;;;;172.80;39.67;;;8.10;99.90;;;;;;4952084;29;20031;-69
2022/01/17 09:12:23;;;;;;;299.67;44.40;;;8.10;99.90;;;;;;4952647;29;20039;-69
2022/01/17 09:14:49;;;;;;;360.60;45.80;;;8.20;99.90;;;;;;4950382;29;20078;-69
2022/01/17 09:17:14;;;;;;;309.63;43.22;;;8.20;99.90;;;;;;4948553;28;20054;-69
2022/01/17 09:19:42;;;;;;;256.63;41.90;;;8.30;99.90;;;;;;4948870;29;20027;-69
2022/01/17 09:22:09;;;;;;;179.57;39.17;;;8.30;99.90;;;;;;4950058;28;21278;-69
2022/01/17 09:24:36;;;;;;;374.20;53.85;;;8.40;99.90;;;;;;4950496;28;20034;-69
2022/01/17 09:27:04;;;;;;;223.43;49.35;;;8.50;99.90;;;;;;4952201;28;20035;-69
2022/01/17 09:29:30;;;;;;;236.40;48.80;;;8.50;99.90;;;;;;4945189;28;20502;-69
2022/01/17 09:31:57;;;;;;;298.00;50.85;;;8.60;99.90;;;;;;4953164;29;20475;-70
2022/01/17 09:34:23;;;;;;;297.88;51.45;;;8.70;99.90;;;;;;4951265;29;20039;-69
2022/01/17 09:36:49;;;;;;;179.40;43.75;;;8.80;99.90;;;;;;4951169;28;20526;-69
2022/01/17 09:39:15;;;;;;;317.83;50.25;;;8.80;99.90;;;;;;4946284;29;20047;-69
2022/01/17 09:41:41;;;;;;;248.20;43.38;;;8.90;99.90;;;;;;4950303;28;20063;-70
2022/01/17 09:44:09;;;;;;;102.22;36.25;;;8.90;99.90;;;;;;4949671;28;20114;-69
2022/01/17 09:46:41;;;;;;;124.10;39.22;;;9.00;99.90;;;;;;4950419;29;20039;-69
2022/01/17 09:49:44;;;;;;;159.15;39.22;;;9.00;99.90;;;;;;4944508;28;20043;-69
2022/01/17 09:52:07;;;;;;;126.10;34.47;;;9.10;99.90;;;;;;4944089;29;20090;-69
2022/01/17 09:54:36;;;;;;;101.10;33.47;;;9.20;99.90;;;;;;4947242;28;20502;-70
2022/01/17 09:57:08;;;;;;;81.30;29.77;;;9.20;99.90;;;;;;4950130;28;20038;-69
2022/01/17 09:59:37;;;;;;;93.32;33.97;;;9.20;99.90;;;;;;4952168;28;20039;-69
2022/01/17 10:02:04;;;;;;;100.05;34.47;;;9.20;99.90;;;;;;4954385;28;20050;-70
2022/01/17 10:04:30;;;;;;;118.22;37.10;;;9.20;99.90;;;;;;4949704;28;20043;-70
2022/01/17 10:06:59;;;;;;;91.47;31.98;;;9.30;99.90;;;;;;4948586;29;20028;-70
2022/01/17 10:09:26;;;;;;;99.38;30.90;;;9.30;99.90;;;;;;4951155;28;20034;-69
2022/01/17 10:12:09;;;;;;;97.68;31.17;;;9.40;99.90;;;;;;4951499;28;20061;-69
2022/01/17 10:14:58;;;;;;;74.95;28.02;;;9.50;99.90;;;;;;4942838;28;20025;-69
2022/01/17 10:17:42;;;;;;;50.38;22.23;;;9.50;99.90;;;;;;4943308;29;20031;-69
2022/01/17 10:20:09;;;;;;;45.50;21.30;;;9.60;99.90;;;;;;4944369;29;20115;-69
2022/01/17 10:22:45;;;;;;;40.95;20.67;;;9.70;99.90;;;;;;4950080;29;20038;-69
2022/01/17 10:25:49;;;;;;;54.63;27.08;;;9.80;99.90;;;;;;4949481;28;20032;-69
2022/01/17 10:31:33;;;;;;;48.85;20.73;;;9.80;99.90;;;;;;4949356;28;20062;-69
2022/01/17 10:36:19;;;;;;;53.08;23.55;;;9.90;99.90;;;;;;4950786;28;20107;-69
2022/01/17 10:38:45;;;;;;;48.95;22.95;;;9.90;99.90;;;;;;4941866;28;20034;-70
2022/01/17 10:41:13;;;;;;;46.55;21.42;;;9.90;99.90;;;;;;4949033;28;20027;-69
2022/01/17 10:43:42;;;;;;;46.33;21.33;;;9.90;99.90;;;;;;4947273;29;20023;-69
2022/01/17 10:46:13;;;;;;;36.25;17.67;;;9.90;99.90;;;;;;4949656;29;20039;-69
2022/01/17 10:48:46;;;;;;;36.17;17.70;;;9.90;99.90;;;;;;4949351;28;20104;-69
2022/01/17 10:51:14;;;;;;;34.45;17.13;;;10.00;99.90;;;;;;4949048;28;20518;-69
2022/01/17 10:53:40;;;;;;;34.80;17.75;;;10.00;99.90;;;;;;4936350;29;20024;-70
2022/01/17 10:56:10;;;;;;;37.50;16.60;;;10.10;99.90;;;;;;4951151;29;20035;-69
2022/01/17 10:58:38;;;;;;;32.20;17.10;;;10.10;99.90;;;;;;4950426;29;20519;-69
2022/01/17 11:01:13;;;;;;;35.25;19.65;;;10.10;99.90;;;;;;4948818;28;20020;-69
2022/01/17 11:03:42;;;;;;;28.80;15.52;;;10.20;99.90;;;;;;4949017;28;20051;-70
2022/01/17 11:06:20;;;;;;;26.20;14.23;;;10.20;99.90;;;;;;4949231;28;20042;-69
2022/01/17 11:08:47;;;;;;;21.58;12.80;;;10.20;99.90;;;;;;4935751;29;20509;-69
2022/01/17 11:11:13;;;;;;;24.40;13.38;;;10.30;99.90;;;;;;4951049;28;20039;-69
2022/01/17 11:13:48;;;;;;;23.00;12.88;;;10.30;99.90;;;;;;4947588;28;20031;-69
2022/01/17 11:16:15;;;;;;;23.25;12.63;;;10.40;99.90;;;;;;4946607;28;20122;-70
2022/01/17 11:18:44;;;;;;;23.10;12.55;;;10.40;99.90;;;;;;4948742;29;20038;-70
2022/01/17 11:21:14;;;;;;;21.52;11.90;;;10.50;99.90;;;;;;4945559;28;20395;-69
2022/01/17 11:23:43;;;;;;;23.17;13.50;;;10.50;99.90;;;;;;4935744;29;20086;-69
2022/01/17 11:26:10;;;;;;;22.65;13.35;;;10.60;99.90;;;;;;4946818;29;20034;-69
2022/01/17 11:28:37;;;;;;;22.25;13.80;;;10.80;99.90;;;;;;4942922;29;20039;-69
2022/01/17 11:31:06;;;;;;;22.83;13.02;;;10.90;99.90;;;;;;4946783;29;20035;-69
2022/01/17 11:33:32;;;;;;;18.13;11.82;;;10.90;99.90;;;;;;4948488;29;20023;-69
2022/01/17 11:35:58;;;;;;;20.95;12.18;;;10.90;99.90;;;;;;4948157;28;20100;-70
2022/01/17 11:38:49;;;;;;;22.80;12.10;;;10.90;99.90;;;;;;4951483;28;20502;-70
2022/01/17 11:41:30;;;;;;;17.40;10.93;;;10.90;99.90;;;;;;4937681;29;20933;-70
2022/01/17 11:44:02;;;;;;;16.67;10.23;;;10.90;99.90;;;;;;4944873;29;20028;-69
2022/01/17 11:46:32;;;;;;;14.82;9.52;;;10.80;99.90;;;;;;4941953;29;20028;-69
2022/01/17 11:49:06;;;;;;;16.48;10.13;;;10.80;99.90;;;;;;4944039;29;20054;-69
2022/01/17 11:51:47;;;;;;;14.52;8.98;;;10.90;99.90;;;;;;4948277;28;20038;-70
2022/01/17 11:54:14;;;;;;;;;;;10.90;99.90;;;;;;4947606;29;20062;-69
2022/01/17 11:56:51;;;;;;;17.30;10.00;;;10.90;99.90;;;;;;4950037;28;19910;-69
2022/01/17 11:59:46;;;;;;;17.35;10.43;;;10.90;99.90;;;;;;4948453;29;20031;-69
2022/01/17 12:02:28;;;;;;;19.05;13.93;;;11.00;99.90;;;;;;4940743;29;20079;-69
2022/01/17 12:05:03;;;;;;;18.00;9.95;;;11.10;99.90;;;;;;4950738;29;20047;-69
2022/01/17 12:07:55;;;;;;;15.70;10.68;;;11.10;99.90;;;;;;4948101;29;20040;-70
2022/01/17 12:10:37;;;;;;;18.23;10.77;;;11.10;99.90;;;;;;4943277;29;20055;-70
2022/01/17 12:13:15;;;;;;;35.25;29.95;;;11.20;99.90;;;;;;4948186;28;20465;-70
2022/01/17 12:16:07;;;;;;;133.63;111.10;;;11.30;99.90;;;;;;4942994;29;20046;-69
2022/01/17 12:18:47;;;;;;;39.05;31.85;;;11.40;99.90;;;;;;4948444;28;20024;-69
2022/01/17 12:21:40;;;;;;;28.08;21.70;;;11.40;99.90;;;;;;4948734;28;20027;-69
2022/01/17 12:24:18;;;;;;;33.50;26.35;;;11.30;99.90;;;;;;4952619;28;20093;-70
2022/01/17 12:27:01;;;;;;;37.50;29.52;;;11.30;99.90;;;;;;4944873;29;20032;-69
2022/01/17 12:30:07;;;;;;;36.42;30.70;;;11.30;99.90;;;;;;4949845;28;20106;-70
2022/01/17 12:32:35;;;;;;;33.33;29.17;;;11.30;99.90;;;;;;4956945;28;20031;-70
2022/01/17 12:35:04;;;;;;;25.83;18.95;;;11.20;99.90;;;;;;4951362;28;20076;-69
2022/01/17 12:37:45;;;;;;;21.83;14.43;;;11.20;99.90;;;;;;4951846;29;20035;-70
2022/01/17 12:40:11;;;;;;;;;;;11.20;99.90;;;;;;4953353;29;20042;-70
2022/01/17 12:42:53;;;;;;;24.30;17.40;;;11.20;99.90;;;;;;4952091;28;19910;-70
2022/01/17 12:45:27;;;;;;;20.67;15.65;;;11.20;99.90;;;;;;4944192;28;20030;-70
2022/01/17 12:47:53;;;;;;;17.23;11.27;;;11.40;99.90;;;;;;4951833;28;20047;-69
2022/01/17 12:50:20;;;;;;;22.67;16.15;;;11.70;99.90;;;;;;4944000;28;20050;-70
2022/01/17 12:52:49;;;;;;;19.77;12.23;;;11.80;99.90;;;;;;4954993;28;20031;-70
2022/01/17 12:55:15;;;;;;;17.95;11.00;;;11.90;99.90;;;;;;4944984;28;20028;-69
2022/01/17 12:57:43;;;;;;;19.05;10.90;;;12.00;99.90;;;;;;4945041;29;20449;-70